createdAt,value
2023-11-07T00:01:32.761Z,6.57
2023-11-07T00:04:09.350Z,6.15
2023-11-07T00:06:37.071Z,5.35
2023-11-07T00:09:04.835Z,5.82
2023-11-07T00:11:32.201Z,5.68
2023-11-07T00:13:59.797Z,6.68
2023-11-07T00:16:28.948Z,7.10
2023-11-07T00:18:57.483Z,6.32
2023-11-07T00:21:25.411Z,5.65
2023-11-07T00:23:53.106Z,6.10
2023-11-07T00:26:21.689Z,5.95
2023-11-07T00:28:53.209Z,7.70
2023-11-07T00:31:20.504Z,6.28
2023-11-07T00:33:48.201Z,7.68
2023-11-07T00:36:17.516Z,7.95
2023-11-07T00:38:45.613Z,8.52
2023-11-07T00:41:14.650Z,7.57
2023-11-07T00:43:45.663Z,6.43
2023-11-07T00:46:13.023Z,6.43
2023-11-07T00:48:40.767Z,7.40
2023-11-07T00:51:08.959Z,7.05
2023-11-07T00:53:40.156Z,6.07
2023-11-07T00:56:10.965Z,7.43
2023-11-07T00:58:38.711Z,8.18
2023-11-07T01:01:06.387Z,9.65
2023-11-07T01:03:35.224Z,10.63
2023-11-07T01:06:06.092Z,11.15
2023-11-07T01:08:35.356Z,10.25
2023-11-07T01:11:02.814Z,10.05
2023-11-07T01:13:31.339Z,8.32
2023-11-07T01:16:03.393Z,7.45
2023-11-07T01:18:31.505Z,6.13
2023-11-07T01:20:59.646Z,6.75
2023-11-07T01:23:27.519Z,6.30
2023-11-07T01:25:55.241Z,6.18
2023-11-07T01:28:24.116Z,5.22
2023-11-07T01:30:52.686Z,5.18
2023-11-07T01:33:20.473Z,4.03
2023-11-07T01:35:48.072Z,4.50
2023-11-07T01:38:15.826Z,4.40
2023-11-07T01:40:42.986Z,3.95
2023-11-07T01:43:15.040Z,4.03
2023-11-07T01:45:43.375Z,4.30
2023-11-07T01:48:19.465Z,4.22
2023-11-07T01:50:46.760Z,4.45
2023-11-07T01:53:14.968Z,4.45
2023-11-07T01:55:43.828Z,3.28
2023-11-07T01:58:11.877Z,4.13
2023-11-07T02:00:41.426Z,5.18
2023-11-07T02:03:09.662Z,4.00
2023-11-07T02:05:37.147Z,3.85
2023-11-07T02:08:06.810Z,4.28
2023-11-07T02:10:34.191Z,3.80
2023-11-07T02:13:01.850Z,3.47
2023-11-07T02:15:29.188Z,3.70
2023-11-07T02:17:57.212Z,4.43
2023-11-07T02:20:25.518Z,4.43
2023-11-07T02:23:10.695Z,3.55
2023-11-07T02:25:40.182Z,3.70
2023-11-07T02:28:08.577Z,3.78
2023-11-07T02:30:35.885Z,3.88
2023-11-07T02:33:06.008Z,4.05
2023-11-07T02:35:33.902Z,3.80
2023-11-07T02:38:02.069Z,3.00
2023-11-07T02:40:30.442Z,3.47
2023-11-07T02:43:01.057Z,3.35
2023-11-07T02:45:29.775Z,3.95
2023-11-07T02:47:57.642Z,3.40
2023-11-07T02:50:25.107Z,3.80
2023-11-07T02:52:52.784Z,3.67
2023-11-07T02:55:20.127Z,3.28
2023-11-07T02:57:48.758Z,3.50
2023-11-07T03:00:16.924Z,3.22
2023-11-07T03:02:44.904Z,2.90
2023-11-07T03:05:13.882Z,3.65
2023-11-07T03:07:41.544Z,5.68
2023-11-07T03:10:10.446Z,6.28
2023-11-07T03:12:38.057Z,6.47
2023-11-07T03:15:06.250Z,5.45
2023-11-07T03:17:35.571Z,5.05
2023-11-07T03:20:10.167Z,6.30
2023-11-07T03:22:38.037Z,4.50
2023-11-07T03:25:05.963Z,4.53
2023-11-07T03:27:34.568Z,5.55
2023-11-07T03:30:07.727Z,6.43
2023-11-07T03:32:36.146Z,6.77
2023-11-07T03:35:06.165Z,5.93
2023-11-07T03:37:34.400Z,4.75
2023-11-07T03:40:05.350Z,5.32
2023-11-07T03:42:36.543Z,5.10
2023-11-07T03:45:04.993Z,5.50
2023-11-07T03:47:34.752Z,5.05
2023-11-07T03:50:04.242Z,4.57
2023-11-07T03:52:32.235Z,4.15
2023-11-07T03:54:59.529Z,5.05
2023-11-07T03:57:27.354Z,4.80
2023-11-07T03:59:55.752Z,4.28
2023-11-07T04:02:23.745Z,6.85
2023-11-07T04:04:51.271Z,4.13
2023-11-07T04:07:18.938Z,4.65
2023-11-07T04:09:46.506Z,3.55
2023-11-07T04:12:15.216Z,3.95
2023-11-07T04:14:45.080Z,3.67
2023-11-07T04:17:13.464Z,3.10
2023-11-07T04:19:40.846Z,5.07
2023-11-07T04:22:09.057Z,3.53
2023-11-07T04:24:38.738Z,3.53
2023-11-07T04:27:08.704Z,4.00
2023-11-07T04:29:36.199Z,4.30
2023-11-07T04:32:04.246Z,3.70
2023-11-07T04:34:31.556Z,3.55
2023-11-07T04:37:00.141Z,3.63
2023-11-07T04:39:28.353Z,4.35
2023-11-07T04:41:56.234Z,3.33
2023-11-07T04:44:25.921Z,3.92
2023-11-07T04:46:54.068Z,3.38
2023-11-07T04:49:21.685Z,3.97
2023-11-07T04:51:49.557Z,4.00
2023-11-07T04:54:16.996Z,3.83
2023-11-07T04:56:45.598Z,3.50
2023-11-07T04:59:14.606Z,3.88
2023-11-07T05:01:42.351Z,4.05
2023-11-07T05:04:13.952Z,4.13
2023-11-07T05:06:43.016Z,5.13
2023-11-07T05:09:13.984Z,4.20
2023-11-07T05:11:42.573Z,4.75
2023-11-07T05:14:11.925Z,5.40
2023-11-07T05:16:45.359Z,4.72
2023-11-07T05:19:16.255Z,5.10
2023-11-07T05:21:44.175Z,5.45
2023-11-07T05:24:14.293Z,5.25
2023-11-07T05:26:41.944Z,5.45
2023-11-07T05:33:47.052Z,5.60
2023-11-07T05:36:17.303Z,6.45
2023-11-07T05:38:45.769Z,5.80
2023-11-07T05:41:13.572Z,5.05
2023-11-07T05:43:47.726Z,6.25
2023-11-07T05:48:53.132Z,5.05
2023-11-07T05:51:28.919Z,6.03
2023-11-07T05:54:03.333Z,6.15
2023-11-07T05:56:31.278Z,7.15
2023-11-07T06:03:34.137Z,5.20
2023-11-07T06:06:01.835Z,4.90
2023-11-07T06:08:29.947Z,6.25
2023-11-07T06:10:58.592Z,5.32
2023-11-07T06:13:26.813Z,5.28
2023-11-07T06:15:55.723Z,4.88
2023-11-07T06:18:23.677Z,5.18
2023-11-07T06:20:52.594Z,6.25
2023-11-07T06:23:21.709Z,5.35
2023-11-07T06:25:52.361Z,5.07
2023-11-07T06:28:28.376Z,5.18
2023-11-07T06:30:55.962Z,5.07
2023-11-07T06:33:25.079Z,5.13
2023-11-07T06:35:55.424Z,5.60
2023-11-07T06:38:27.102Z,5.15
2023-11-07T06:40:54.489Z,4.75
2023-11-07T06:43:22.372Z,4.40
2023-11-07T06:45:50.731Z,4.70
2023-11-07T06:48:18.372Z,5.00
2023-11-07T06:50:47.627Z,5.53
2023-11-07T06:53:15.252Z,5.10
2023-11-07T06:55:42.666Z,6.13
2023-11-07T06:58:10.776Z,5.50
2023-11-07T07:00:40.217Z,5.80
2023-11-07T07:03:08.167Z,5.72
2023-11-07T07:05:35.824Z,4.95
2023-11-07T07:08:04.905Z,6.97
2023-11-07T07:10:33.454Z,6.28
2023-11-07T07:13:01.339Z,6.00
2023-11-07T07:15:28.879Z,7.25
2023-11-07T07:17:56.542Z,5.82
2023-11-07T07:20:24.335Z,5.93
2023-11-07T07:22:53.462Z,6.38
2023-11-07T07:25:22.495Z,6.18
2023-11-07T07:32:22.408Z,6.28
2023-11-07T07:34:52.826Z,5.63
2023-11-07T07:37:22.204Z,5.60
2023-11-07T07:39:49.520Z,5.95
2023-11-07T07:42:18.825Z,6.45
2023-11-07T07:44:46.816Z,6.28
2023-11-07T07:47:16.954Z,6.13
2023-11-07T07:49:46.017Z,7.10
2023-11-07T07:52:13.641Z,8.40
2023-11-07T07:55:00.634Z,7.15
2023-11-07T07:57:29.540Z,17.27
2023-11-07T08:00:00.959Z,22.67
2023-11-07T08:02:28.791Z,8.93
2023-11-07T08:04:58.030Z,7.55
2023-11-07T08:07:25.950Z,16.00
2023-11-07T08:09:53.290Z,7.10
2023-11-07T08:12:22.476Z,7.05
2023-11-07T08:14:49.743Z,5.00
2023-11-07T08:17:18.825Z,14.07
2023-11-07T08:19:47.602Z,9.80
2023-11-07T08:22:15.800Z,4.88
2023-11-07T08:24:43.830Z,4.90
2023-11-07T08:31:45.467Z,4.80
2023-11-07T08:34:13.177Z,4.70
2023-11-07T08:36:48.403Z,5.32
2023-11-07T08:39:29.001Z,6.07
2023-11-07T08:41:57.537Z,4.93
2023-11-07T08:44:24.883Z,5.50
2023-11-07T08:46:52.431Z,6.15
2023-11-07T08:49:50.237Z,7.78
2023-11-07T08:52:19.725Z,10.55
2023-11-07T08:54:47.084Z,14.75
2023-11-07T08:57:14.702Z,17.88
2023-11-07T08:59:46.051Z,10.65
2023-11-07T09:02:15.350Z,9.48
2023-11-07T09:04:44.841Z,11.07
2023-11-07T09:07:13.821Z,9.32
2023-11-07T09:09:41.187Z,8.65
2023-11-07T09:12:11.680Z,8.38
2023-11-07T09:14:38.983Z,9.07
2023-11-07T09:17:06.682Z,9.15
2023-11-07T09:19:34.143Z,8.73
2023-11-07T09:22:02.588Z,8.05
2023-11-07T09:24:30.256Z,8.57
2023-11-07T09:26:57.867Z,12.50
2023-11-07T09:29:26.179Z,9.77
2023-11-07T09:31:54.946Z,11.23
2023-11-07T09:34:22.513Z,11.57
2023-11-07T09:36:50.229Z,11.60
2023-11-07T09:39:17.599Z,7.78
2023-11-07T09:41:46.648Z,6.57
2023-11-07T09:44:15.161Z,7.22
2023-11-07T09:46:50.842Z,7.82
2023-11-07T09:49:22.049Z,9.80
2023-11-07T09:51:53.823Z,11.50
2023-11-07T09:54:26.542Z,13.52
2023-11-07T09:56:57.188Z,11.15
2023-11-07T09:59:54.125Z,11.73
2023-11-07T10:02:23.444Z,7.40
2023-11-07T10:04:54.114Z,7.82
2023-11-07T10:07:23.277Z,6.45
2023-11-07T10:09:56.195Z,6.93
2023-11-07T10:12:24.169Z,6.43
2023-11-07T10:14:52.694Z,6.28
2023-11-07T10:17:24.384Z,6.78
2023-11-07T10:20:16.406Z,6.70
2023-11-07T10:22:48.396Z,6.68
2023-11-07T10:25:51.541Z,4.80
2023-11-07T10:28:23.724Z,6.65
2023-11-07T10:30:52.017Z,8.02
2023-11-07T10:33:30.477Z,8.80
2023-11-07T10:36:01.765Z,8.73
2023-11-07T10:38:31.038Z,7.55
2023-11-07T10:41:00.189Z,7.60
2023-11-07T10:43:39.537Z,6.20
2023-11-07T10:46:12.503Z,6.10
2023-11-07T12:28:12.592Z,5.80
2023-11-07T14:24:27.991Z,8.40
2023-11-07T14:27:07.222Z,7.40
2023-11-07T14:29:55.144Z,7.43
2023-11-07T14:32:25.388Z,8.40
2023-11-07T14:34:54.011Z,7.90
2023-11-07T14:37:21.711Z,7.20
2023-11-07T14:39:50.333Z,6.50
2023-11-07T14:42:18.305Z,6.40
2023-11-07T14:44:47.003Z,7.60
2023-11-07T14:47:14.776Z,8.93
2023-11-07T14:49:44.504Z,11.10
2023-11-07T14:52:17.681Z,15.07
2023-11-07T14:54:54.500Z,14.70
2023-11-07T15:07:07.967Z,11.32
2023-11-07T15:09:38.903Z,10.90
2023-11-07T15:12:11.607Z,10.35
2023-11-07T15:24:28.070Z,8.40
2023-11-07T15:26:55.639Z,15.82
2023-11-07T15:29:23.626Z,10.00
2023-11-07T15:31:51.601Z,7.93
2023-11-07T15:34:21.114Z,11.10
2023-11-07T15:36:48.595Z,11.90
2023-11-07T15:39:19.086Z,10.50
2023-11-07T15:41:47.378Z,11.65
2023-11-07T15:44:16.897Z,9.88
2023-11-07T15:46:45.099Z,8.25
2023-11-07T15:49:12.978Z,9.15
2023-11-07T15:51:40.536Z,14.05
2023-11-07T15:54:08.280Z,14.07
2023-11-07T15:56:35.687Z,12.48
2023-11-07T15:59:05.727Z,10.50
2023-11-07T16:01:33.956Z,9.73
2023-11-07T16:04:01.810Z,10.98
2023-11-07T16:06:29.838Z,11.93
2023-11-07T16:08:58.190Z,10.65
2023-11-07T16:11:25.524Z,11.25
2023-11-07T16:13:54.323Z,10.95
2023-11-07T16:16:23.780Z,10.38
2023-11-07T16:18:56.101Z,13.25
2023-11-07T16:21:28.341Z,19.55
2023-11-07T16:24:00.425Z,16.52
2023-11-07T16:26:42.939Z,19.65
2023-11-07T16:29:12.131Z,19.85
2023-11-07T16:32:07.369Z,12.10
2023-11-07T16:34:38.481Z,11.45
2023-11-07T16:37:08.166Z,10.23
2023-11-07T16:39:39.662Z,9.95
2023-11-07T16:42:11.972Z,10.38
2023-11-07T16:44:41.338Z,10.10
2023-11-07T16:47:13.609Z,9.13
2023-11-07T16:49:44.300Z,9.02
2023-11-07T16:52:16.583Z,12.05
2023-11-07T16:54:45.323Z,11.27
2023-11-07T16:57:20.685Z,10.68
2023-11-07T17:00:12.135Z,12.48
2023-11-07T17:03:09.802Z,12.68
2023-11-07T17:40:11.156Z,12.02
2023-11-07T17:42:41.089Z,13.25
2023-11-07T17:45:12.501Z,12.82
2023-11-07T18:03:30.431Z,16.45
2023-11-07T18:11:06.610Z,11.90
2023-11-07T18:22:34.100Z,10.65
2023-11-07T18:25:03.933Z,12.80
2023-11-07T18:27:33.473Z,13.68
2023-11-07T18:30:09.484Z,12.10
2023-11-07T18:33:37.690Z,10.80
2023-11-07T18:37:20.143Z,11.02
2023-11-07T18:39:48.606Z,12.52
2023-11-07T18:42:16.581Z,11.90
2023-11-07T18:44:47.347Z,12.77
2023-11-07T18:47:15.020Z,11.90
2023-11-07T18:49:44.039Z,13.20
2023-11-07T18:52:11.858Z,13.13
2023-11-07T18:54:42.648Z,11.18
2023-11-07T18:57:14.319Z,11.68
2023-11-07T18:59:42.650Z,11.50
2023-11-07T19:02:11.487Z,11.27
2023-11-07T19:04:40.884Z,12.95
2023-11-07T19:07:09.236Z,14.77
2023-11-07T19:09:37.464Z,12.80
2023-11-07T19:12:05.978Z,11.73
2023-11-07T19:14:39.869Z,11.45
2023-11-07T19:17:13.192Z,11.05
2023-11-07T19:19:42.794Z,13.98
2023-11-07T19:22:10.689Z,15.85
2023-11-07T19:24:39.620Z,19.52
2023-11-07T19:27:12.036Z,16.27
2023-11-07T19:29:40.445Z,12.68
2023-11-07T19:32:08.318Z,16.67
2023-11-07T19:34:36.297Z,13.70
2023-11-07T19:37:03.942Z,11.88
2023-11-07T19:39:32.659Z,10.90
2023-11-07T19:42:04.023Z,10.63
2023-11-07T19:44:34.677Z,11.00
2023-11-07T19:47:02.937Z,35.22
2023-11-07T19:49:30.634Z,77.97
2023-11-07T19:51:59.551Z,64.13
2023-11-07T19:54:35.845Z,20.55
2023-11-07T19:57:04.154Z,12.23
2023-11-07T19:59:35.396Z,8.75
2023-11-07T20:02:06.059Z,11.55
2023-11-07T20:04:36.304Z,11.55
2023-11-07T20:07:07.106Z,9.48
2023-11-07T20:09:38.388Z,10.02
2023-11-07T20:12:11.313Z,9.70
2023-11-07T20:14:39.775Z,6.80
2023-11-07T20:17:08.924Z,8.10
2023-11-07T20:19:38.498Z,7.10
2023-11-07T20:22:06.601Z,9.50
2023-11-07T20:24:37.680Z,8.55
2023-11-07T20:27:05.525Z,12.20
2023-11-07T20:29:36.232Z,12.10
2023-11-07T20:32:07.084Z,11.38
2023-11-07T20:34:44.647Z,11.00
2023-11-07T20:37:14.670Z,11.73
2023-11-07T20:39:44.877Z,11.57
2023-11-07T20:42:13.778Z,15.98
2023-11-07T20:44:44.567Z,11.55
2023-11-07T20:47:17.517Z,12.93
2023-11-07T20:49:49.899Z,13.00
2023-11-07T20:52:25.184Z,14.80
2023-11-07T20:54:57.064Z,13.48
2023-11-07T20:57:25.080Z,15.88
2023-11-07T20:59:55.189Z,13.05
2023-11-07T21:02:25.492Z,12.93
2023-11-07T21:04:58.040Z,14.35
2023-11-07T21:07:25.509Z,12.98
2023-11-07T21:09:55.132Z,12.55
2023-11-07T21:12:22.613Z,12.93
2023-11-07T21:14:52.530Z,13.50
2023-11-07T21:17:21.200Z,13.68
2023-11-07T21:19:50.479Z,14.95
2023-11-07T21:22:19.160Z,13.80
2023-11-07T21:24:48.936Z,15.18
2023-11-07T21:27:18.341Z,15.35
2023-11-07T21:29:46.980Z,15.05
2023-11-07T21:32:16.385Z,14.73
2023-11-07T21:34:46.136Z,15.13
2023-11-07T21:37:22.246Z,20.35
2023-11-07T21:39:51.421Z,18.98
2023-11-07T21:42:23.776Z,17.77
2023-11-07T21:44:52.110Z,14.80
2023-11-07T21:47:23.376Z,15.23
2023-11-07T21:49:51.279Z,14.85
2023-11-07T21:52:20.645Z,14.18
2023-11-07T21:54:48.568Z,14.13
2023-11-07T21:57:16.239Z,11.15
2023-11-07T21:59:44.012Z,8.52
2023-11-07T22:02:13.034Z,8.40
2023-11-07T22:04:41.180Z,7.55
2023-11-07T22:07:09.988Z,7.72
2023-11-07T22:09:39.348Z,7.18
2023-11-07T22:12:08.329Z,6.32
2023-11-07T22:14:38.143Z,7.28
2023-11-07T22:17:07.980Z,7.55
2023-11-07T22:19:37.209Z,7.68
2023-11-07T22:22:07.502Z,7.75
2023-11-07T22:24:35.689Z,6.80
2023-11-07T22:27:05.961Z,10.88
2023-11-07T22:29:34.094Z,10.10
2023-11-07T22:32:01.459Z,7.70
2023-11-07T22:34:30.274Z,8.18
2023-11-07T22:36:57.591Z,12.57
2023-11-07T22:39:25.140Z,8.40
2023-11-07T22:41:53.230Z,9.38
2023-11-07T22:44:28.682Z,9.65
2023-11-07T22:46:55.931Z,8.93
2023-11-07T22:49:26.609Z,8.43
2023-11-07T22:51:53.953Z,9.65
2023-11-07T22:54:23.199Z,8.90
2023-11-07T22:56:51.751Z,10.07
2023-11-07T22:59:22.634Z,10.63
2023-11-07T23:01:51.004Z,9.85
2023-11-07T23:04:18.935Z,9.00
2023-11-07T23:06:46.420Z,10.43
2023-11-07T23:09:14.123Z,9.60
2023-11-07T23:11:48.668Z,10.30
2023-11-07T23:14:18.467Z,10.30
2023-11-07T23:16:45.712Z,9.38
2023-11-07T23:19:13.540Z,9.35
2023-11-07T23:21:41.030Z,9.98
2023-11-07T23:24:09.644Z,9.65
2023-11-07T23:26:41.789Z,9.02
2023-11-07T23:29:13.947Z,8.60
2023-11-07T23:31:41.981Z,9.38
2023-11-07T23:34:18.575Z,7.85
2023-11-07T23:36:48.811Z,7.95
2023-11-07T23:39:17.412Z,8.38
2023-11-07T23:41:45.199Z,8.43
2023-11-07T23:44:14.833Z,7.97
2023-11-07T23:46:46.326Z,9.55
2023-11-07T23:49:14.270Z,8.32
2023-11-07T23:51:43.695Z,9.18
2023-11-07T23:54:11.322Z,8.65
2023-11-07T23:56:39.402Z,9.32
2023-11-07T23:59:07.108Z,9.10
